Amonate, Virginia
Current Conditions -  °F | °C
As of 2:15 PM on Saturday 25 Oct 2014 (Local Time) from KJFZ Reporting Station
Scattered Clouds Scattered Clouds  
Wind Chill: 18°   Ceiling: Unl
Heat Index: 18°   Visibility: 10mi
Dew Point:   Wind: 8mph
Humidity: 52%   Direction: 250°WSW
Pressure: 30.04"   Gusts: NA
Location:  37.19°N, 81.64°W
Report Text: KJFZ 251815Z AUTO 25007KT 10SM SCT060 18/08 A3004 RMK AO2 T01760077
Loading
Personal Weather Stations






























Interactive Weather Map New forecast layout! Learn more

10-Day Weather Forecast

Advertisements
Track Severe Weather on mobile